Detall de PIREP

Printer-friendly versionPDF version

[2013/03/15 17:56:00]
Flight IATA:CT3404
Pilot Number:042
Company ICAO:CAT
Aircraft Type:MD11/E
PAX:0
Aircraft Registration:CARGO
Departing Airport: LEBL
Destination Airport: GCLP
Alternate Airport:GCXO
Online: VATSIM
Route:LOTOS UM985 YES UM985 MGA UN869 RUSIK
Flight Level:FL350
No Slew and time accel
No pause
Crash detect
Detect pilot in Cockpit between each 30 and 45 minutes
17:56 Zero fuel Weight: 393891 Lbs, Fuel Weight: 85253 Lbs
17:56 VATSIM:LEBL 151730Z 14004KT 110V180 CAVOK 13/02 Q1016 NOSIG
17:56 VATSIM:GCLP 151730Z 18011KT 9999 FEW020 21/14 Q1011 NOSIG
17:56 VOICE CATALONIAN/IATA ROUTE CT3404
18:13 Parking Brakes off
18:31 Take-off
18:31 Take off Weight: 476657 Lbs
18:31 Wind: 212º @ 004 Knots Heading: 244º
18:31 POS N41º 17´ 08´´ E002º 05´ 04´´
18:31 Gear Up: 166 Knots
18:31 Flaps:5 at 166 Knots
18:32 Flaps:4 at 164 Knots
18:32 Flaps:3 at 169 Knots
18:32 Flaps:2 at 171 Knots
18:32 Flaps:1 at 172 Knots
18:34 Flaps:0 at 251 Knots
18:46 Wind:302º@055 Knots Heading: 236º Ground Speed: 415 Knots Altitude 33438 ft
18:47 TOC
18:47 Fuel Weight: 72842 Lb
19:01 Wind:298º@055 Knots Heading: 234º Ground Speed: 450 Knots Altitude 35078 ft
19:16 Wind:296º@082 Knots Heading: 235º Ground Speed: 434 Knots Altitude 35082 ft
19:31 Wind:285º@066 Knots Heading: 232º Ground Speed: 429 Knots Altitude 35095 ft
19:46 Wind:291º@071 Knots Heading: 225º Ground Speed: 440 Knots Altitude 35078 ft
20:01 Wind:309º@039 Knots Heading: 218º Ground Speed: 465 Knots Altitude 35032 ft
20:16 Wind:310º@045 Knots Heading: 215º Ground Speed: 475 Knots Altitude 35036 ft
20:31 Wind:323º@037 Knots Heading: 213º Ground Speed: 478 Knots Altitude 35000 ft
20:46 Wind:322º@034 Knots Heading: 248º Ground Speed: 455 Knots Altitude 34990 ft
21:01 Wind:334º@007 Knots Heading: 250º Ground Speed: 461 Knots Altitude 34986 ft
21:02 TOD
21:02 Fuel Weight: 38760 Lb
21:02 TOC
21:02 Fuel Weight: 38757 Lb
21:02 TOD
21:02 Fuel Weight: 38756 Lb
21:16 Wind:301º@004 Knots Heading: 234º Ground Speed: 255 Knots Altitude 10321 ft
21:17 Flaps:1 at 219 Knots
21:17 Flaps:2 at 221 Knots
21:17 Flaps:3 at 220 Knots
21:17 Flaps:4 at 219 Knots
21:21 Gear Down: 215 Knots
21:21 Gear Up: 211 Knots
21:24 Gear Down: 182 Knots
21:24 Flaps:5 at 182 Knots
21:24 Flaps:7 at 183 Knots
21:24 Flaps:8 at 183 Knots
21:24 Flaps:4 at 184 Knots
21:24 Flaps:5 at 184 Knots
21:24 Flaps:6 at 185 Knots
21:24 Flaps:7 at 184 Knots
21:25 Flaps:8 at 174 Knots
21:27 TouchDown:Rate -579 ft/min Speed: 139 Knots
21:27 VATSIM:GCLP 152100Z 17006KT 140V200 CAVOK 19/15 Q1012 NOSIG
21:27 Land
21:27 Wind:038º@012 Knots
21:27 Heading: 199º
21:27 Flight Duration: 02:56
21:27 Landing Weight: 428300 Lbs
21:27 POS N27º 55´ 34´´ W015º 23´ 20´´
21:35 Parking brakes on
21:35 Block to Block Duration: 03:22
21:35 Final Fuel: 33701 Lbls
21:35 Spent Fuel: 51552 Lbls
21:35 Flight Length: 1132 NM
21:35 TOD Land Length: 126 NM

Exportar CSV

Powered by Drupal - Modified by Danger4k